TimeCDT,TemperatureF,Dew PointF,Humidity,Sea Level PressureIn,VisibilityMPH,Wind Direction,Wind SpeedMPH,Gust SpeedMPH,PrecipitationIn,Events,Conditions,WindDirDegrees,DateUTC
12:15 AM,55.4,30.2,38,29.75,10.0,SSW,10.4,18.4,N/A,,Mostly Cloudy,210,2012-10-09 05:15:00
12:35 AM,55.4,30.2,38,29.75,10.0,SSW,10.4,18.4,N/A,,Scattered Clouds,210,2012-10-09 05:35:00
12:55 AM,55.4,32.0,41,29.75,10.0,SSW,9.2,-,N/A,,Clear,210,2012-10-09 05:55:00
1:15 AM,53.6,32.0,44,29.75,10.0,SSW,8.1,16.1,N/A,,Mostly Cloudy,210,2012-10-09 06:15:00
1:35 AM,53.6,32.0,44,29.75,10.0,SSW,9.2,-,N/A,,Overcast,210,2012-10-09 06:35:00
1:55 AM,53.6,32.0,44,29.75,10.0,SSW,5.8,16.1,N/A,,Overcast,200,2012-10-09 06:55:00
2:15 AM,55.4,32.0,41,29.75,10.0,SSW,11.5,17.3,N/A,,Overcast,210,2012-10-09 07:15:00
2:55 AM,55.4,32.0,41,29.74,10.0,SW,9.2,16.1,N/A,,Overcast,220,2012-10-09 07:55:00
3:15 AM,55.4,32.0,41,29.74,10.0,SW,9.2,18.4,N/A,,Overcast,220,2012-10-09 08:15:00
3:35 AM,53.6,35.6,51,29.75,10.0,SW,6.9,-,N/A,,Drizzle,220,2012-10-09 08:35:00
3:55 AM,51.8,37.4,58,29.75,10.0,SW,8.1,-,N/A,,Light Drizzle,220,2012-10-09 08:55:00
4:15 AM,51.8,37.4,58,29.75,10.0,SW,8.1,-,N/A,Rain,Rain,220,2012-10-09 09:15:00
4:35 AM,51.8,37.4,58,29.75,10.0,SW,8.1,-,N/A,,Overcast,220,2012-10-09 09:35:00
4:55 AM,51.8,37.4,58,29.76,10.0,SW,10.4,-,N/A,Rain,Light Rain,230,2012-10-09 09:55:00
5:15 AM,51.8,37.4,58,29.75,10.0,SW,5.8,-,N/A,,Overcast,220,2012-10-09 10:15:00
5:35 AM,51.8,37.4,58,29.75,10.0,SW,5.8,-,N/A,,Overcast,220,2012-10-09 10:35:00
5:55 AM,51.8,37.4,58,29.76,10.0,SW,4.6,-,N/A,,Overcast,230,2012-10-09 10:55:00
6:15 AM,51.8,37.4,58,29.77,10.0,SW,3.5,-,N/A,,Overcast,220,2012-10-09 11:15:00
6:35 AM,51.8,35.6,54,29.77,10.0,SSW,4.6,-,N/A,,Overcast,210,2012-10-09 11:35:00
6:55 AM,51.8,35.6,54,29.77,10.0,Calm,Calm,-,N/A,,Overcast,0,2012-10-09 11:55:00
7:15 AM,51.8,35.6,54,29.77,10.0,Calm,Calm,-,N/A,,Overcast,0,2012-10-09 12:15:00
7:35 AM,51.8,37.4,58,29.77,10.0,SSW,4.6,-,N/A,,Overcast,200,2012-10-09 12:35:00
7:55 AM,51.8,37.4,58,29.77,10.0,SSW,3.5,-,N/A,,Light Drizzle,200,2012-10-09 12:55:00
8:15 AM,50.0,39.2,66,29.77,10.0,South,3.5,-,N/A,,Light Drizzle,180,2012-10-09 13:15:00
8:35 AM,50.0,39.2,66,29.77,10.0,South,4.6,-,N/A,,Light Drizzle,190,2012-10-09 13:35:00
8:55 AM,50.0,39.2,66,29.77,10.0,South,6.9,-,N/A,,Light Drizzle,190,2012-10-09 13:55:00
9:15 AM,50.0,41.0,71,29.77,10.0,SSW,6.9,-,N/A,,Mostly Cloudy,200,2012-10-09 14:15:00
9:35 AM,50.0,41.0,71,29.77,10.0,SSW,5.8,-,N/A,,Overcast,200,2012-10-09 14:35:00
9:55 AM,50.0,41.0,71,29.77,10.0,South,5.8,-,N/A,,Overcast,190,2012-10-09 14:55:00
10:15 AM,50.0,41.0,71,29.77,10.0,SSW,5.8,-,N/A,,Overcast,210,2012-10-09 15:15:00
10:35 AM,50.0,41.0,71,29.76,10.0,SSW,4.6,-,N/A,,Overcast,210,2012-10-09 15:35:00
10:55 AM,50.0,41.0,71,29.75,10.0,SSW,9.2,-,N/A,,Overcast,200,2012-10-09 15:55:00
11:15 AM,51.8,41.0,67,29.75,10.0,SW,5.8,-,N/A,,Overcast,220,2012-10-09 16:15:00
11:55 AM,50.0,41.0,71,29.74,10.0,SSW,9.2,-,N/A,,Overcast,210,2012-10-09 16:55:00
12:15 PM,48.2,42.8,82,29.73,7.0,SW,4.6,-,N/A,,Drizzle,230,2012-10-09 17:15:00
12:35 PM,46.4,44.6,93,29.72,4.0,SW,6.9,-,N/A,Rain,Rain,230,2012-10-09 17:35:00
12:55 PM,46.4,44.6,93,29.71,5.0,SSW,4.6,-,0.01,,Drizzle,210,2012-10-09 17:55:00
1:15 PM,46.4,44.6,93,29.72,7.0,SW,6.9,-,N/A,,Drizzle,230,2012-10-09 18:15:00
1:35 PM,48.2,44.6,87,29.72,7.0,SW,6.9,-,0.02,Rain,Light Rain,220,2012-10-09 18:35:00
1:55 PM,48.2,46.4,93,29.71,7.0,SW,6.9,-,0.02,,Drizzle,230,2012-10-09 18:55:00
2:15 PM,50.0,46.4,87,29.71,7.0,SSW,5.8,-,0.02,Rain,Light Rain,200,2012-10-09 19:15:00
2:35 PM,50.0,46.4,87,29.71,7.0,SSW,5.8,-,0.02,,Light Drizzle,200,2012-10-09 19:35:00
2:55 PM,50.0,46.4,87,29.71,5.0,SSW,3.5,-,0.04,,Drizzle,210,2012-10-09 19:55:00
3:15 PM,48.2,46.4,93,29.73,4.0,West,17.3,25.3,0.02,Rain,Rain,270,2012-10-09 20:15:00
3:35 PM,46.4,42.8,87,29.74,5.0,West,11.5,20.7,0.04,Rain,Rain,270,2012-10-09 20:35:00
3:55 PM,44.6,42.8,93,29.75,5.0,West,8.1,-,0.04,Rain,Rain,280,2012-10-09 20:55:00
4:15 PM,44.6,41.0,87,29.77,7.0,WNW,10.4,16.1,0.02,,Drizzle,290,2012-10-09 21:15:00
4:35 PM,42.8,39.2,87,29.77,7.0,West,11.5,19.6,0.02,,Drizzle,280,2012-10-09 21:35:00
4:55 PM,42.8,37.4,81,29.78,10.0,West,8.1,17.3,0.02,,Light Drizzle,270,2012-10-09 21:55:00
5:15 PM,42.8,39.2,87,29.77,10.0,WSW,4.6,-,N/A,,Overcast,240,2012-10-09 22:15:00
5:35 PM,42.8,39.2,87,29.77,10.0,WSW,4.6,-,N/A,,Mostly Cloudy,240,2012-10-09 22:35:00
5:55 PM,42.8,39.2,87,29.78,10.0,SW,6.9,-,N/A,,Scattered Clouds,220,2012-10-09 22:55:00
6:15 PM,42.8,39.2,87,29.78,10.0,SW,4.6,-,N/A,,Scattered Clouds,230,2012-10-09 23:15:00
6:35 PM,42.8,39.2,87,29.78,10.0,SW,6.9,-,N/A,,Clear,230,2012-10-09 23:35:00
6:55 PM,41.0,39.2,93,29.79,10.0,SW,5.8,-,N/A,,Clear,230,2012-10-09 23:55:00
7:15 PM,41.0,39.2,93,29.79,10.0,SW,4.6,-,N/A,,Clear,220,2012-10-10 00:15:00
7:35 PM,41.0,39.2,93,29.79,10.0,SW,4.6,-,N/A,,Mostly Cloudy,230,2012-10-10 00:35:00
7:55 PM,42.8,39.2,87,29.79,10.0,SW,6.9,-,N/A,,Overcast,230,2012-10-10 00:55:00
8:15 PM,42.8,37.4,81,29.79,10.0,SW,6.9,-,N/A,,Overcast,230,2012-10-10 01:15:00
8:35 PM,42.8,37.4,81,29.79,10.0,SW,8.1,-,N/A,,Overcast,230,2012-10-10 01:35:00
8:55 PM,42.8,39.2,87,29.79,10.0,WSW,8.1,-,N/A,,Overcast,240,2012-10-10 01:55:00
9:15 PM,42.8,39.2,87,29.79,10.0,WSW,9.2,-,N/A,,Overcast,240,2012-10-10 02:15:00
9:35 PM,42.8,37.4,81,29.79,10.0,WSW,8.1,-,N/A,,Overcast,250,2012-10-10 02:35:00
9:55 PM,41.0,37.4,87,29.79,10.0,WSW,6.9,-,N/A,,Scattered Clouds,240,2012-10-10 02:55:00
10:15 PM,41.0,37.4,87,29.80,10.0,WSW,5.8,-,N/A,,Scattered Clouds,240,2012-10-10 03:15:00
10:35 PM,41.0,37.4,87,29.80,10.0,WSW,5.8,-,N/A,,Clear,240,2012-10-10 03:35:00
10:55 PM,41.0,37.4,87,29.79,10.0,WSW,4.6,-,N/A,,Clear,250,2012-10-10 03:55:00
11:15 PM,41.0,35.6,81,29.80,10.0,WSW,4.6,-,N/A,,Clear,250,2012-10-10 04:15:00
11:35 PM,41.0,35.6,81,29.80,10.0,WSW,4.6,-,N/A,,Clear,250,2012-10-10 04:35:00
11:55 PM,39.2,35.6,87,29.80,10.0,West,4.6,-,N/A,,Clear,270,2012-10-10 04:55:00